Time;durP1;ratioP1;P1;durP2;ratioP2;P2;SDS_P1;SDS_P2;PMS_P1;PMS_P2;Temp;Humidity;BMP_temperature;BMP_pressure;BME280_temperature;BME280_humidity;BME280_pressure;Samples;Min_cycle;Max_cycle;Signal;HPM_P1;HPM_P2
2022/08/09 00:01:54;;;;;;;0.80;0.40;;;14.80;98.80;;;;;;5089768;28;20101;-72
2022/08/09 00:04:20;;;;;;;0.85;0.22;;;14.80;98.80;;;;;;5088557;28;20134;-72
2022/08/09 00:06:46;;;;;;;0.77;0.47;;;14.80;98.70;;;;;;5082623;28;20039;-72
2022/08/09 00:09:13;;;;;;;1.25;0.50;;;14.70;98.80;;;;;;5097103;28;20066;-72
2022/08/09 00:11:39;;;;;;;0.73;0.25;;;14.70;98.80;;;;;;5090162;28;20061;-72
2022/08/09 00:14:05;;;;;;;0.30;0.20;;;14.60;98.90;;;;;;5093031;28;20895;-72
2022/08/09 00:16:31;;;;;;;0.98;0.43;;;14.60;99.10;;;;;;5098056;28;20128;-72
2022/08/09 00:18:57;;;;;;;0.63;0.30;;;14.60;99.10;;;;;;5088986;28;20043;-72
2022/08/09 00:21:22;;;;;;;0.50;0.25;;;14.60;99.00;;;;;;5073754;28;20109;-72
2022/08/09 00:23:48;;;;;;;0.70;0.35;;;14.60;99.20;;;;;;5081273;28;20039;-72
2022/08/09 00:26:14;;;;;;;0.47;0.25;;;14.60;98.90;;;;;;5083888;28;20035;-72
2022/08/09 00:28:39;;;;;;;0.60;0.35;;;14.50;98.70;;;;;;5085144;28;20028;-72
2022/08/09 00:31:06;;;;;;;3.20;0.50;;;14.50;98.80;;;;;;5094288;28;20035;-72
2022/08/09 00:33:31;;;;;;;0.68;0.38;;;14.40;98.90;;;;;;5086816;28;20074;-72
2022/08/09 00:36:00;;;;;;;0.90;0.40;;;14.40;98.90;;;;;;5081970;28;20041;-72
2022/08/09 00:38:26;;;;;;;0.68;0.28;;;14.40;98.90;;;;;;5085889;28;20043;-72
2022/08/09 00:40:52;;;;;;;0.40;0.30;;;14.30;98.90;;;;;;5083126;28;20393;-72
2022/08/09 00:43:19;;;;;;;0.32;0.20;;;14.30;98.90;;;;;;5069949;28;20035;-72
2022/08/09 00:45:44;;;;;;;0.32;0.22;;;14.20;98.90;;;;;;5066535;28;20036;-72
2022/08/09 00:48:10;;;;;;;0.73;0.43;;;14.20;98.90;;;;;;5096479;28;20028;-72
2022/08/09 00:50:36;;;;;;;0.65;0.22;;;14.20;99.10;;;;;;5072096;28;20452;-72
2022/08/09 00:53:02;;;;;;;0.60;0.25;;;14.20;99.10;;;;;;5097811;28;20032;-72
2022/08/09 00:55:28;;;;;;;0.75;0.40;;;14.20;99.10;;;;;;5083811;28;20784;-72
2022/08/09 00:57:53;;;;;;;0.50;0.38;;;14.20;99.00;;;;;;5095980;28;20125;-72
2022/08/09 01:00:19;;;;;;;0.38;0.20;;;14.10;98.90;;;;;;5084481;28;20043;-72
2022/08/09 01:02:52;;;;;;;0.52;0.28;;;14.10;98.90;;;;;;5073173;28;20035;-72
2022/08/09 01:05:29;;;;;;;0.63;0.30;;;14.10;99.10;;;;;;5070071;28;20122;-72
2022/08/09 01:08:08;;;;;;;2.00;0.40;;;14.10;99.10;;;;;;5092481;28;20051;-72
2022/08/09 01:10:57;;;;;;;0.93;0.38;;;14.00;99.30;;;;;;5089675;28;20084;-72
2022/08/09 01:14:06;;;;;;;0.50;0.30;;;14.00;99.20;;;;;;5091499;28;20038;-72
2022/08/09 01:16:38;;;;;;;0.85;0.50;;;13.90;99.20;;;;;;5037627;28;20037;-72
2022/08/09 01:19:35;;;;;;;0.52;0.30;;;13.90;99.10;;;;;;5079060;28;20052;-72
2022/08/09 01:22:29;;;;;;;0.55;0.35;;;13.90;99.50;;;;;;5099623;27;20548;-72
2022/08/09 01:25:16;;;;;;;2.58;0.25;;;13.80;99.30;;;;;;5080850;28;20035;-72
2022/08/09 01:27:44;;;;;;;0.75;0.30;;;13.80;99.50;;;;;;5086484;28;20096;-72
2022/08/09 01:30:10;;;;;;;0.73;0.40;;;13.80;99.20;;;;;;5064050;28;20044;-72
2022/08/09 01:32:42;;;;;;;0.43;0.30;;;13.80;99.20;;;;;;5089992;28;20044;-72
2022/08/09 01:35:14;;;;;;;0.77;0.50;;;13.80;99.20;;;;;;5094915;28;20151;-72
2022/08/09 01:37:42;;;;;;;0.65;0.43;;;13.80;99.20;;;;;;5089999;28;20043;-72
2022/08/09 01:40:10;;;;;;;0.75;0.30;;;13.80;99.10;;;;;;5087779;28;20127;-72
2022/08/09 01:42:37;;;;;;;2.10;0.77;;;13.80;99.10;;;;;;5082930;28;20047;-72
2022/08/09 01:45:03;;;;;;;1.33;0.70;;;13.70;99.10;;;;;;5086964;28;20039;-72
2022/08/09 01:47:31;;;;;;;0.70;0.40;;;13.70;99.10;;;;;;5096657;28;20045;-72
2022/08/09 01:49:57;;;;;;;0.50;0.22;;;13.70;99.10;;;;;;5084945;28;20500;-72
2022/08/09 01:52:24;;;;;;;0.80;0.40;;;13.70;99.10;;;;;;5092735;27;20385;-72
2022/08/09 01:54:55;;;;;;;0.57;0.28;;;13.60;98.90;;;;;;5095948;28;20562;-72
2022/08/09 01:57:27;;;;;;;0.32;0.20;;;13.60;99.00;;;;;;5089016;28;20039;-72
2022/08/09 01:59:55;;;;;;;0.50;0.30;;;13.50;99.30;;;;;;5087253;28;20044;-72
2022/08/09 02:02:30;;;;;;;0.73;0.38;;;13.50;99.30;;;;;;5090805;28;20413;-72
2022/08/09 02:04:58;;;;;;;2.03;0.90;;;13.50;99.50;;;;;;5087230;28;20111;-72
2022/08/09 02:07:25;;;;;;;1.52;0.63;;;13.50;99.30;;;;;;5083765;28;20044;-72
2022/08/09 02:09:55;;;;;;;0.40;0.30;;;13.50;99.30;;;;;;5096834;28;20489;-72
2022/08/09 02:12:22;;;;;;;1.08;0.50;;;13.40;99.20;;;;;;5077241;28;20062;-72
2022/08/09 02:14:51;;;;;;;0.55;0.20;;;13.50;99.10;;;;;;5081865;28;20127;-72
2022/08/09 02:17:27;;;;;;;0.80;0.32;;;13.40;99.20;;;;;;5082401;28;20901;-72
2022/08/09 02:19:53;;;;;;;1.00;0.40;;;13.40;99.30;;;;;;5096385;28;20060;-72
2022/08/09 02:22:28;;;;;;;1.48;0.70;;;13.40;99.30;;;;;;5071217;28;20560;-72
2022/08/09 02:24:57;;;;;;;0.57;0.30;;;13.40;99.30;;;;;;5081935;28;20138;-72
2022/08/09 02:27:25;;;;;;;0.77;0.40;;;13.40;99.20;;;;;;5086757;28;21261;-72
2022/08/09 02:29:54;;;;;;;0.85;0.50;;;13.30;99.10;;;;;;5084841;28;20317;-72
2022/08/09 02:32:22;;;;;;;0.38;0.20;;;13.20;99.10;;;;;;5090129;28;20509;-72
2022/08/09 02:34:53;;;;;;;0.32;0.17;;;13.20;99.10;;;;;;5091893;28;20047;-72
2022/08/09 02:37:21;;;;;;;0.30;0.30;;;13.20;99.30;;;;;;5078237;28;20120;-72
2022/08/09 02:39:53;;;;;;;0.65;0.30;;;13.20;99.30;;;;;;5090522;28;20131;-72
2022/08/09 02:42:24;;;;;;;0.95;0.40;;;13.20;99.10;;;;;;5084405;28;20040;-72
2022/08/09 02:44:55;;;;;;;1.73;0.60;;;13.10;99.20;;;;;;5082944;28;20046;-72
2022/08/09 02:47:22;;;;;;;3.38;0.70;;;13.10;99.40;;;;;;5091078;28;20071;-72
2022/08/09 02:50:04;;;;;;;0.63;0.43;;;13.10;99.60;;;;;;5068371;28;20100;-73
2022/08/09 02:52:39;;;;;;;1.42;0.50;;;13.10;99.90;;;;;;5091128;28;20054;-72
2022/08/09 02:55:07;;;;;;;1.47;0.73;;;13.10;99.90;;;;;;5081530;28;20081;-72
2022/08/09 02:57:34;;;;;;;1.40;0.50;;;13.10;99.70;;;;;;5073625;28;20039;-72
2022/08/09 03:00:01;;;;;;;1.05;0.40;;;13.20;99.60;;;;;;5084911;28;20032;-72
2022/08/09 03:02:28;;;;;;;1.15;0.45;;;13.20;99.40;;;;;;5089730;28;20042;-72
2022/08/09 03:04:55;;;;;;;0.90;0.40;;;13.20;99.40;;;;;;5091016;28;20126;-72
2022/08/09 03:07:21;;;;;;;1.10;0.38;;;13.10;99.40;;;;;;5090425;28;20036;-72
2022/08/09 03:09:49;;;;;;;1.88;0.57;;;13.10;99.30;;;;;;5081037;28;20520;-72
2022/08/09 03:12:17;;;;;;;1.92;0.93;;;13.10;99.30;;;;;;5079025;28;20032;-72
2022/08/09 03:14:45;;;;;;;1.85;0.70;;;13.10;99.20;;;;;;5084130;28;20097;-72
2022/08/09 03:17:11;;;;;;;3.42;0.85;;;13.00;99.40;;;;;;5083674;28;20039;-72
2022/08/09 03:19:39;;;;;;;1.83;0.73;;;13.00;99.40;;;;;;5087315;28;20457;-72
2022/08/09 03:22:07;;;;;;;2.53;0.95;;;13.00;99.60;;;;;;5086957;28;20043;-72
2022/08/09 03:24:33;;;;;;;2.47;0.90;;;13.00;99.60;;;;;;5082192;28;20051;-72
2022/08/09 03:27:00;;;;;;;1.08;0.55;;;13.00;99.60;;;;;;5087656;28;20035;-72
2022/08/09 03:29:26;;;;;;;1.90;0.73;;;12.90;99.50;;;;;;5086185;28;20058;-72
2022/08/09 03:31:53;;;;;;;1.58;0.65;;;12.80;99.50;;;;;;5089358;28;20042;-72
2022/08/09 03:34:19;;;;;;;1.65;0.90;;;12.80;99.70;;;;;;5072726;28;20032;-72
2022/08/09 03:36:45;;;;;;;1.48;0.82;;;12.80;99.90;;;;;;5088558;28;20539;-73
2022/08/09 03:39:11;;;;;;;2.13;0.98;;;12.80;99.90;;;;;;5081728;28;20046;-72
2022/08/09 03:41:36;;;;;;;1.67;0.80;;;12.80;99.90;;;;;;5066099;28;20537;-72
2022/08/09 03:44:02;;;;;;;0.65;0.40;;;12.80;99.90;;;;;;5066906;28;20043;-72
2022/08/09 03:46:28;;;;;;;1.25;0.60;;;12.80;99.90;;;;;;5085413;28;20067;-72
2022/08/09 03:48:57;;;;;;;4.10;0.95;;;12.80;99.90;;;;;;5094924;28;20520;-72
2022/08/09 03:51:25;;;;;;;3.17;0.90;;;12.80;99.90;;;;;;5071074;28;20112;-72
2022/08/09 03:53:51;;;;;;;1.25;0.60;;;12.80;99.90;;;;;;5088372;28;20036;-72
2022/08/09 03:56:17;;;;;;;1.65;0.65;;;12.80;99.90;;;;;;5078477;28;20221;-72
2022/08/09 03:58:43;;;;;;;2.13;0.80;;;12.80;99.90;;;;;;5083887;28;20707;-72
2022/08/09 04:01:09;;;;;;;2.00;0.70;;;12.90;99.90;;;;;;5082602;28;20035;-72
2022/08/09 04:03:36;;;;;;;2.15;0.65;;;12.70;99.90;;;;;;5086691;28;20497;-72
2022/08/09 04:06:02;;;;;;;2.20;0.90;;;12.70;99.90;;;;;;5078637;28;20413;-72
2022/08/09 04:08:28;;;;;;;1.90;0.90;;;12.70;99.90;;;;;;5081860;28;20096;-72
2022/08/09 04:10:53;;;;;;;3.35;1.10;;;12.70;99.90;;;;;;5082304;28;20123;-72
2022/08/09 04:13:19;;;;;;;2.33;0.80;;;12.70;99.90;;;;;;5082581;28;20067;-72
2022/08/09 04:15:44;;;;;;;2.92;1.02;;;12.70;99.90;;;;;;5081519;28;20044;-72
2022/08/09 04:18:10;;;;;;;2.30;1.13;;;12.70;99.90;;;;;;5080143;28;20119;-72
2022/08/09 04:20:36;;;;;;;2.20;0.77;;;12.80;99.90;;;;;;5081621;28;20101;-72
2022/08/09 04:23:02;;;;;;;0.80;0.47;;;12.80;99.90;;;;;;5083865;28;20104;-72
2022/08/09 04:25:28;;;;;;;1.20;0.52;;;12.80;99.90;;;;;;5082726;28;20039;-72
2022/08/09 04:27:55;;;;;;;0.98;0.40;;;12.80;99.90;;;;;;5084679;28;20044;-72
2022/08/09 04:30:24;;;;;;;2.80;0.98;;;12.80;99.90;;;;;;5087710;28;20035;-72
2022/08/09 04:32:50;;;;;;;1.48;0.65;;;12.80;99.90;;;;;;5080912;28;20035;-72
2022/08/09 04:35:17;;;;;;;1.17;0.60;;;12.80;99.90;;;;;;5086111;28;20575;-72
2022/08/09 04:37:42;;;;;;;1.10;0.60;;;12.80;99.90;;;;;;5079647;28;20035;-72
2022/08/09 04:40:09;;;;;;;2.35;0.98;;;12.80;99.90;;;;;;5089901;28;20032;-72
2022/08/09 04:42:35;;;;;;;3.38;1.13;;;12.80;99.90;;;;;;5089404;28;20130;-72
2022/08/09 04:45:01;;;;;;;2.00;1.02;;;12.80;99.90;;;;;;5085825;28;20189;-72
2022/08/09 04:47:28;;;;;;;1.83;0.80;;;12.70;99.90;;;;;;5091332;28;20044;-72
2022/08/09 04:49:54;;;;;;;2.22;0.77;;;12.70;99.90;;;;;;5087044;28;20545;-72
2022/08/09 04:52:25;;;;;;;4.30;1.05;;;12.70;99.90;;;;;;5082721;28;20032;-72
2022/08/09 04:54:51;;;;;;;2.63;1.13;;;12.70;99.90;;;;;;5081276;28;20060;-72
2022/08/09 04:57:17;;;;;;;2.45;0.95;;;12.70;99.90;;;;;;5092319;28;20062;-72
2022/08/09 04:59:43;;;;;;;1.95;0.90;;;12.80;99.90;;;;;;5084398;28;20035;-72
2022/08/09 05:02:09;;;;;;;2.97;0.98;;;12.80;99.90;;;;;;5081478;28;20036;-72
2022/08/09 05:04:35;;;;;;;2.10;0.80;;;12.90;99.90;;;;;;5086877;28;20048;-72
2022/08/09 05:07:00;;;;;;;2.70;1.13;;;12.90;99.90;;;;;;5092321;28;20038;-72
2022/08/09 05:09:29;;;;;;;2.72;1.17;;;12.90;99.90;;;;;;5067046;28;20441;-72
2022/08/09 05:11:54;;;;;;;1.83;0.80;;;13.00;99.90;;;;;;5079347;28;20090;-72
2022/08/09 05:14:20;;;;;;;2.05;0.85;;;13.00;99.90;;;;;;5073501;28;20446;-72
2022/08/09 05:16:46;;;;;;;1.45;0.65;;;13.00;99.90;;;;;;5066003;28;20039;-72
2022/08/09 05:19:13;;;;;;;1.70;1.00;;;13.00;99.90;;;;;;5078157;28;20062;-72
2022/08/09 05:21:39;;;;;;;1.38;0.68;;;13.00;99.90;;;;;;5086316;28;20448;-72
2022/08/09 05:24:05;;;;;;;2.28;1.10;;;13.00;99.90;;;;;;5083753;28;20034;-72
2022/08/09 05:26:31;;;;;;;1.50;0.80;;;12.90;99.90;;;;;;5085596;28;20041;-72
2022/08/09 05:28:57;;;;;;;2.40;0.82;;;13.00;99.90;;;;;;5074952;28;20035;-72
2022/08/09 05:31:23;;;;;;;2.85;1.05;;;13.10;99.90;;;;;;5089651;28;20039;-72
2022/08/09 05:33:48;;;;;;;2.63;1.00;;;13.10;99.90;;;;;;5098703;28;20770;-72
2022/08/09 05:36:14;;;;;;;2.78;1.00;;;13.10;99.90;;;;;;5086308;28;20039;-72
2022/08/09 05:38:40;;;;;;;1.75;0.88;;;13.10;99.90;;;;;;5093399;28;20044;-72
2022/08/09 05:41:06;;;;;;;2.35;0.90;;;13.20;99.90;;;;;;5085348;28;20039;-72
2022/08/09 05:43:34;;;;;;;1.92;1.00;;;13.30;99.90;;;;;;5097727;27;20035;-72
2022/08/09 05:46:00;;;;;;;2.20;1.08;;;13.50;99.90;;;;;;5069555;28;20036;-72
2022/08/09 05:48:26;;;;;;;4.05;1.40;;;13.80;99.90;;;;;;5086521;28;20039;-72
2022/08/09 05:50:52;;;;;;;3.05;1.40;;;14.10;99.90;;;;;;5085906;28;20407;-72
2022/08/09 05:53:17;;;;;;;2.45;0.88;;;14.20;99.90;;;;;;5076632;28;20028;-72
2022/08/09 05:55:43;;;;;;;2.58;1.25;;;14.20;99.90;;;;;;5067572;28;20115;-72
2022/08/09 05:58:09;;;;;;;2.72;1.08;;;14.20;99.90;;;;;;5093073;28;20123;-72
2022/08/09 06:00:34;;;;;;;3.45;1.58;;;14.20;99.90;;;;;;5083051;28;20036;-72
2022/08/09 06:03:02;;;;;;;2.95;1.13;;;14.20;99.90;;;;;;5085446;28;20040;-72
2022/08/09 06:05:30;;;;;;;1.80;0.95;;;14.20;99.90;;;;;;5088229;28;20043;-72
2022/08/09 06:07:55;;;;;;;2.88;1.42;;;14.20;99.90;;;;;;5078350;28;20040;-72
2022/08/09 06:10:36;;;;;;;2.92;1.27;;;14.20;99.90;;;;;;5082314;28;20054;-72
2022/08/09 06:13:04;;;;;;;2.85;1.15;;;14.20;99.90;;;;;;5083953;28;20131;-72
2022/08/09 06:15:29;;;;;;;2.55;1.30;;;14.30;99.90;;;;;;5080231;28;20457;-72
2022/08/09 06:17:55;;;;;;;4.18;1.45;;;14.40;99.90;;;;;;5094433;28;20079;-72
2022/08/09 06:20:21;;;;;;;3.17;1.50;;;14.40;99.90;;;;;;5086917;28;20125;-72
2022/08/09 06:22:46;;;;;;;3.97;1.20;;;14.50;99.90;;;;;;5085935;28;20048;-72
2022/08/09 06:25:12;;;;;;;1.92;0.90;;;14.60;99.90;;;;;;5099589;28;20046;-72
2022/08/09 06:27:37;;;;;;;4.35;1.38;;;14.70;99.90;;;;;;5082663;28;20048;-72
2022/08/09 06:30:03;;;;;;;2.08;1.10;;;14.80;99.90;;;;;;5081456;28;20035;-72
2022/08/09 06:32:29;;;;;;;2.47;1.10;;;15.10;99.90;;;;;;5094592;28;20025;-72
2022/08/09 06:34:54;;;;;;;2.28;1.10;;;15.70;99.90;;;;;;5094182;28;20109;-72
2022/08/09 06:37:20;;;;;;;2.13;1.20;;;16.80;99.90;;;;;;5095944;28;20040;-72
2022/08/09 06:39:45;;;;;;;2.38;1.08;;;18.00;99.90;;;;;;5073390;28;20039;-73
2022/08/09 06:42:11;;;;;;;1.70;0.88;;;18.80;99.20;;;;;;5089025;28;20537;-72
2022/08/09 06:44:37;;;;;;;2.03;0.80;;;19.00;98.80;;;;;;5081054;28;20051;-72
2022/08/09 06:47:03;;;;;;;2.10;0.93;;;18.80;99.40;;;;;;5083115;28;20038;-72
2022/08/09 06:49:29;;;;;;;0.93;0.68;;;18.40;99.90;;;;;;5092277;28;20116;-72
2022/08/09 06:51:54;;;;;;;3.22;1.00;;;18.20;99.90;;;;;;5079470;28;20039;-72
2022/08/09 06:54:20;;;;;;;1.50;0.80;;;18.00;99.90;;;;;;5094188;27;20040;-72
2022/08/09 06:56:46;;;;;;;2.55;0.70;;;17.80;99.90;;;;;;5086699;28;20472;-73
2022/08/09 06:59:12;;;;;;;2.22;1.00;;;17.70;99.90;;;;;;5077753;28;20594;-72
2022/08/09 07:01:37;;;;;;;1.42;0.65;;;17.60;99.90;;;;;;5089799;28;20622;-72
2022/08/09 07:04:03;;;;;;;2.50;0.63;;;17.50;99.90;;;;;;5078567;28;20036;-72
2022/08/09 07:06:28;;;;;;;1.20;0.45;;;17.50;99.90;;;;;;5080710;28;20067;-73
2022/08/09 07:08:54;;;;;;;3.92;0.68;;;17.40;99.90;;;;;;5080101;28;20036;-72
2022/08/09 07:11:20;;;;;;;3.05;0.55;;;17.40;99.90;;;;;;5088932;28;21781;-72
2022/08/09 07:13:45;;;;;;;0.85;0.60;;;17.40;99.90;;;;;;5066183;28;20077;-72
2022/08/09 07:16:11;;;;;;;0.80;0.40;;;17.30;99.90;;;;;;5082922;28;20023;-72
2022/08/09 07:18:36;;;;;;;0.88;0.57;;;17.30;99.90;;;;;;5090572;28;20043;-72
2022/08/09 07:21:02;;;;;;;1.35;0.40;;;17.30;99.90;;;;;;5091952;28;20048;-73
2022/08/09 07:23:27;;;;;;;1.95;0.50;;;17.30;99.90;;;;;;5078283;28;20658;-73
2022/08/09 07:25:53;;;;;;;0.52;0.20;;;17.30;99.90;;;;;;5075322;28;20042;-72
2022/08/09 07:28:19;;;;;;;1.30;0.50;;;17.30;99.90;;;;;;5084200;28;20059;-72
2022/08/09 07:30:45;;;;;;;0.77;0.40;;;17.30;99.90;;;;;;5088273;28;20032;-72
2022/08/09 07:33:11;;;;;;;1.55;0.70;;;17.30;99.90;;;;;;5088604;28;20028;-72
2022/08/09 07:35:37;;;;;;;1.55;0.55;;;17.30;99.90;;;;;;5090087;28;20087;-72
2022/08/09 07:38:03;;;;;;;1.08;0.45;;;17.30;99.90;;;;;;5089397;28;20127;-72
2022/08/09 07:40:28;;;;;;;0.95;0.55;;;17.30;99.90;;;;;;5076495;28;20036;-72
2022/08/09 07:42:57;;;;;;;1.42;0.82;;;17.30;99.90;;;;;;5076872;28;20067;-72
2022/08/09 07:45:29;;;;;;;1.27;0.50;;;17.30;99.90;;;;;;5083961;28;20429;-72
2022/08/09 07:47:57;;;;;;;0.98;0.55;;;17.40;99.90;;;;;;5060215;28;20551;-72
2022/08/09 07:50:24;;;;;;;2.05;0.95;;;17.40;99.90;;;;;;5080646;28;20410;-72
2022/08/09 07:52:50;;;;;;;1.48;0.55;;;17.50;99.90;;;;;;5082022;28;20043;-72
2022/08/09 07:55:16;;;;;;;2.10;0.70;;;17.50;99.90;;;;;;5078822;28;20059;-72
2022/08/09 07:57:44;;;;;;;2.38;0.40;;;17.70;99.90;;;;;;5079885;28;20448;-72
2022/08/09 08:00:10;;;;;;;2.03;0.50;;;17.70;99.90;;;;;;5092783;28;20039;-72
2022/08/09 08:02:36;;;;;;;1.27;0.68;;;17.70;99.90;;;;;;5062694;28;20096;-72
2022/08/09 08:05:02;;;;;;;1.40;0.60;;;17.80;99.90;;;;;;5078530;28;20048;-72
2022/08/09 08:07:27;;;;;;;3.75;0.90;;;17.70;99.90;;;;;;5082815;28;20067;-72
2022/08/09 08:09:53;;;;;;;1.15;0.43;;;17.80;99.90;;;;;;5085468;28;20173;-72
2022/08/09 08:12:20;;;;;;;1.90;0.52;;;17.80;99.90;;;;;;5082522;28;20036;-72
2022/08/09 08:14:45;;;;;;;0.57;0.40;;;17.80;99.90;;;;;;5081704;28;20508;-72
2022/08/09 08:17:11;;;;;;;1.08;0.60;;;17.80;99.90;;;;;;5101171;27;20119;-72
2022/08/09 08:19:36;;;;;;;0.75;0.30;;;17.90;99.90;;;;;;5080121;28;20062;-72
2022/08/09 08:22:03;;;;;;;1.27;0.60;;;17.90;99.90;;;;;;5079681;28;20458;-72
2022/08/09 08:24:29;;;;;;;1.85;0.60;;;17.90;99.90;;;;;;5084942;28;20040;-72
2022/08/09 08:26:55;;;;;;;0.50;0.20;;;18.00;99.90;;;;;;5068719;28;20036;-74
2022/08/09 08:29:20;;;;;;;0.52;0.30;;;18.10;99.90;;;;;;5084759;28;20044;-73
2022/08/09 08:31:46;;;;;;;0.95;0.40;;;18.10;99.90;;;;;;5076997;28;20034;-72
2022/08/09 08:34:11;;;;;;;0.50;0.30;;;18.20;99.90;;;;;;5076944;28;20470;-72
2022/08/09 08:36:37;;;;;;;0.60;0.40;;;18.30;99.90;;;;;;5087941;27;20136;-72
2022/08/09 08:39:03;;;;;;;0.73;0.32;;;18.40;99.90;;;;;;5080973;28;20051;-72
2022/08/09 08:41:30;;;;;;;0.10;0.10;;;18.40;99.90;;;;;;5081693;28;20134;-72
2022/08/09 08:43:57;;;;;;;1.55;0.47;;;18.40;99.90;;;;;;5086022;28;20389;-72
2022/08/09 08:46:28;;;;;;;0.13;0.13;;;18.50;99.90;;;;;;5098235;27;20036;-72
2022/08/09 08:48:54;;;;;;;1.00;0.30;;;18.50;99.90;;;;;;5092259;27;20039;-73
2022/08/09 08:51:21;;;;;;;0.50;0.30;;;18.50;99.90;;;;;;5082883;28;20036;-72
2022/08/09 08:53:47;;;;;;;0.65;0.30;;;18.70;99.90;;;;;;5081130;28;20027;-72
2022/08/09 08:56:13;;;;;;;0.47;0.20;;;18.90;99.70;;;;;;5096025;27;20058;-72
2022/08/09 08:58:40;;;;;;;1.33;0.30;;;18.90;99.20;;;;;;5080815;28;20096;-73
2022/08/09 09:01:07;;;;;;;0.38;0.20;;;19.00;99.00;;;;;;5085959;28;20050;-73
2022/08/09 09:03:34;;;;;;;0.10;0.10;;;19.10;98.10;;;;;;5079204;28;20052;-73
2022/08/09 09:06:02;;;;;;;1.15;0.30;;;19.20;97.70;;;;;;5075738;28;20615;-73
2022/08/09 09:08:32;;;;;;;0.25;0.13;;;19.10;97.70;;;;;;5081633;28;20044;-73
2022/08/09 09:11:03;;;;;;;0.30;0.20;;;19.00;97.30;;;;;;5093235;28;20043;-73
2022/08/09 09:13:36;;;;;;;0.65;0.28;;;18.90;97.20;;;;;;5096715;28;20028;-73
2022/08/09 09:16:02;;;;;;;1.55;0.17;;;19.00;97.60;;;;;;5083178;28;20047;-73
2022/08/09 09:18:28;;;;;;;0.50;0.30;;;19.00;97.30;;;;;;5078617;28;20123;-73
2022/08/09 09:20:55;;;;;;;1.67;0.40;;;18.90;96.90;;;;;;5085028;28;20142;-73
2022/08/09 09:23:41;;;;;;;0.30;0.22;;;18.90;96.90;;;;;;5083024;28;20120;-73
2022/08/09 09:26:07;;;;;;;1.65;0.40;;;18.90;96.10;;;;;;5086234;28;20140;-73
2022/08/09 09:28:34;;;;;;;0.40;0.20;;;19.00;96.60;;;;;;5083745;28;20146;-73
2022/08/09 09:31:00;;;;;;;0.10;0.10;;;19.10;96.50;;;;;;5090466;28;20351;-73
2022/08/09 09:33:36;;;;;;;0.47;0.35;;;19.10;96.10;;;;;;5098602;27;20040;-73
2022/08/09 09:36:07;;;;;;;0.43;0.25;;;19.10;96.00;;;;;;5095903;27;20032;-73
2022/08/09 09:38:55;;;;;;;0.85;0.40;;;19.10;96.00;;;;;;5095409;28;20063;-73
2022/08/09 09:41:27;;;;;;;0.40;0.20;;;19.10;94.90;;;;;;5085388;28;20123;-73
2022/08/09 09:43:57;;;;;;;0.43;0.20;;;19.20;95.80;;;;;;5082034;28;20543;-73
2022/08/09 09:46:30;;;;;;;0.50;0.30;;;19.20;95.70;;;;;;5112259;27;20058;-73
2022/08/09 09:48:56;;;;;;;0.28;0.25;;;19.20;95.80;;;;;;5080386;28;20231;-73
2022/08/09 09:51:22;;;;;;;0.73;0.30;;;19.30;95.80;;;;;;5077235;28;20211;-73
2022/08/09 09:54:02;;;;;;;1.10;0.52;;;19.30;95.80;;;;;;5083775;28;20027;-73
2022/08/09 09:56:32;;;;;;;0.52;0.30;;;19.40;95.30;;;;;;5085740;28;20484;-74
2022/08/09 09:58:58;;;;;;;0.30;0.22;;;19.50;95.40;;;;;;5097382;27;20374;-73
2022/08/09 10:01:24;;;;;;;0.98;0.52;;;19.40;95.20;;;;;;5079434;28;20047;-73
2022/08/09 10:03:52;;;;;;;0.60;0.30;;;19.40;95.30;;;;;;5077924;28;20035;-73
2022/08/09 10:06:18;;;;;;;0.32;0.28;;;19.50;95.20;;;;;;5077797;28;20052;-74
2022/08/09 10:08:47;;;;;;;1.02;0.30;;;19.50;95.30;;;;;;5077596;28;20059;-72
2022/08/09 10:11:20;;;;;;;0.20;0.15;;;19.60;94.80;;;;;;5083657;28;20036;-73
2022/08/09 10:13:47;;;;;;;0.38;0.25;;;19.60;94.50;;;;;;5099082;28;20197;-73
2022/08/09 10:16:14;;;;;;;0.25;0.20;;;19.60;95.00;;;;;;5081645;28;20602;-74
2022/08/09 10:18:50;;;;;;;0.25;0.17;;;19.60;94.70;;;;;;5080368;28;20389;-73
2022/08/09 10:21:16;;;;;;;0.25;0.20;;;19.70;94.10;;;;;;5078050;28;20084;-73
2022/08/09 10:23:42;;;;;;;0.43;0.28;;;19.70;94.60;;;;;;5088419;28;20055;-73
2022/08/09 10:26:08;;;;;;;0.73;0.20;;;19.70;94.40;;;;;;5088112;28;20485;-73
2022/08/09 10:28:34;;;;;;;0.40;0.20;;;19.80;94.10;;;;;;5082513;28;20115;-73
2022/08/09 10:31:01;;;;;;;0.35;0.20;;;19.90;93.90;;;;;;5081849;28;20049;-73
2022/08/09 10:33:27;;;;;;;0.43;0.30;;;20.00;93.80;;;;;;5081267;27;20032;-73
2022/08/09 10:35:55;;;;;;;0.40;0.22;;;20.00;93.70;;;;;;5080829;28;20503;-73
2022/08/09 10:38:21;;;;;;;1.27;0.28;;;20.00;93.80;;;;;;5088784;28;20096;-73
2022/08/09 10:40:46;;;;;;;0.70;0.22;;;20.10;93.90;;;;;;5085806;28;20032;-73
2022/08/09 10:43:13;;;;;;;0.70;0.30;;;20.10;93.80;;;;;;5088880;28;20485;-73
2022/08/09 10:45:43;;;;;;;0.22;0.17;;;20.10;93.90;;;;;;5087740;28;20486;-73
2022/08/09 10:48:25;;;;;;;0.70;0.30;;;20.10;93.80;;;;;;5068229;28;20504;-73
2022/08/09 10:51:05;;;;;;;0.70;0.40;;;20.00;93.10;;;;;;5082619;28;20040;-73
2022/08/09 10:54:01;;;;;;;1.08;0.35;;;20.20;93.60;;;;;;5081398;28;20048;-73
2022/08/09 10:56:29;;;;;;;0.63;0.30;;;20.20;91.40;;;;;;5080644;28;20035;-73
2022/08/09 10:58:56;;;;;;;1.65;0.47;;;20.30;93.00;;;;;;5066319;28;20035;-73
2022/08/09 11:01:41;;;;;;;0.50;0.30;;;20.30;92.80;;;;;;5077590;28;20051;-73
2022/08/09 11:04:12;;;;;;;0.65;0.40;;;20.30;90.80;;;;;;5064624;28;20127;-73
2022/08/09 11:06:43;;;;;;;0.40;0.20;;;20.40;92.30;;;;;;5077715;28;20036;-73
2022/08/09 11:09:10;;;;;;;0.40;0.20;;;20.40;92.20;;;;;;5060391;28;20469;-73
2022/08/09 11:11:57;;;;;;;0.47;0.25;;;20.40;92.10;;;;;;5080580;28;20097;-73
2022/08/09 11:14:43;;;;;;;0.55;0.30;;;20.50;90.80;;;;;;5064503;28;20050;-73
2022/08/09 11:17:12;;;;;;;0.20;0.20;;;20.50;91.00;;;;;;5086456;28;20027;-74
2022/08/09 11:20:00;;;;;;;0.32;0.20;;;20.40;91.80;;;;;;5082064;28;20067;-73
2022/08/09 11:22:41;;;;;;;0.65;0.10;;;20.50;88.90;;;;;;5096008;28;20058;-73
2022/08/09 11:25:08;;;;;;;0.40;0.20;;;20.50;89.60;;;;;;5088977;28;20545;-73
2022/08/09 11:27:40;;;;;;;0.45;0.30;;;20.50;90.90;;;;;;5061994;28;20081;-73
2022/08/09 11:30:08;;;;;;;0.40;0.20;;;20.50;91.10;;;;;;5096823;28;20199;-73
2022/08/09 11:32:50;;;;;;;0.30;0.20;;;20.60;91.10;;;;;;5063521;28;20122;-73
2022/08/09 11:35:44;;;;;;;0.82;0.22;;;20.60;89.50;;;;;;5096652;28;20093;-73
2022/08/09 11:38:16;;;;;;;0.43;0.20;;;20.60;90.50;;;;;;5068251;28;20052;-74
2022/08/09 11:40:42;;;;;;;0.52;0.32;;;20.70;90.20;;;;;;5063750;28;20043;-74
2022/08/09 11:43:08;;;;;;;0.32;0.20;;;20.70;90.70;;;;;;5077309;28;20406;-74
2022/08/09 11:45:39;;;;;;;0.52;0.20;;;20.70;90.50;;;;;;5082585;28;20105;-74
2022/08/09 11:48:10;;;;;;;0.60;0.30;;;20.70;90.10;;;;;;5087128;28;20040;-74
2022/08/09 11:50:55;;;;;;;0.63;0.32;;;20.80;90.20;;;;;;5086410;28;20571;-74
2022/08/09 11:53:21;;;;;;;0.45;0.28;;;20.90;88.30;;;;;;5069774;28;20040;-74
2022/08/09 11:55:49;;;;;;;0.43;0.30;;;20.90;90.30;;;;;;5090837;28;20035;-74
2022/08/09 11:58:14;;;;;;;0.70;0.20;;;20.90;90.10;;;;;;5069959;28;20039;-74
2022/08/09 12:00:58;;;;;;;0.40;0.25;;;21.10;89.40;;;;;;5089320;28;20401;-74
2022/08/09 12:03:25;;;;;;;0.30;0.20;;;21.10;85.50;;;;;;5084713;28;20058;-74
2022/08/09 12:05:54;;;;;;;0.10;0.10;;;21.10;88.10;;;;;;5097300;28;20058;-74
2022/08/09 12:08:21;;;;;;;0.28;0.20;;;21.10;87.40;;;;;;5086378;28;20044;-74
2022/08/09 12:10:49;;;;;;;0.40;0.30;;;21.10;87.40;;;;;;5085842;28;20085;-74
2022/08/09 12:13:32;;;;;;;0.60;0.20;;;21.10;87.50;;;;;;5087095;28;20068;-74
2022/08/09 12:16:03;;;;;;;0.52;0.30;;;21.20;83.40;;;;;;5119609;27;20039;-74
2022/08/09 12:18:30;;;;;;;1.40;0.40;;;21.20;85.80;;;;;;5082688;28;20040;-74
2022/08/09 12:20:56;;;;;;;0.73;0.43;;;21.30;86.00;;;;;;5081077;28;20105;-74
2022/08/09 12:23:21;;;;;;;0.73;0.30;;;21.30;85.60;;;;;;5084812;28;20047;-74
2022/08/09 12:25:49;;;;;;;0.75;0.32;;;21.30;85.90;;;;;;5077802;28;20563;-74
2022/08/09 12:28:17;;;;;;;0.30;0.20;;;21.30;85.90;;;;;;5085675;28;20040;-74
2022/08/09 12:30:43;;;;;;;0.28;0.20;;;21.30;85.40;;;;;;5081215;28;20033;-74
2022/08/09 12:33:10;;;;;;;3.70;0.30;;;21.40;85.40;;;;;;5088750;28;20027;-74
2022/08/09 12:35:37;;;;;;;0.20;0.20;;;21.40;84.60;;;;;;5081108;28;20713;-73
2022/08/09 12:38:24;;;;;;;0.40;0.30;;;21.50;83.20;;;;;;5087708;28;20509;-72
2022/08/09 12:40:51;;;;;;;0.85;0.30;;;21.50;81.10;;;;;;5084511;28;20043;-74
2022/08/09 12:43:21;;;;;;;0.63;0.20;;;21.40;83.60;;;;;;5085294;28;20051;-73
2022/08/09 12:45:48;;;;;;;0.47;0.28;;;21.50;81.80;;;;;;5084184;28;20032;-74
2022/08/09 12:48:15;;;;;;;0.75;0.40;;;21.60;81.30;;;;;;5086265;28;20111;-74
2022/08/09 12:50:42;;;;;;;0.65;0.38;;;21.60;80.20;;;;;;5083133;28;20098;-74
2022/08/09 12:53:31;;;;;;;0.68;0.40;;;21.60;80.70;;;;;;5082037;28;20044;-74
2022/08/09 12:56:08;;;;;;;0.35;0.20;;;21.60;80.60;;;;;;5083627;28;20048;-74